Nationale Nord-Est Sanchey (88) - H

Date : 18/03/2018
Distance : 3,800 km

Place Nom Licence Catégorie Club Temps min/km CN à J-60 Points Différence Nouveau CN
1 BOUSSER Etienne 1843 H70 5702GE 0:32:14 8'28 6019 5452 -567 5916
2 VENON Gérard 2738 H70 2105BF 0:34:38 9'06 5486 5075 -411 5486
3 COLOMBET Christian 3163 H70 2108BF 0:35:01 9'12 4719 5019 +300 4779
4 PREVOST Pascale 922 D60 7707IF 0:35:02 9'13 5247 5017 -230 5248
5 BONNET Christine 2400 D60 5402GE 0:35:25 9'19 4518 4962 +444 4712
6 TAILLANDIER Guy 1583 H70 0801GE 0:35:34 9'21 5008 4941 -67 5015
7 HUMBERTCLAUDE J-Paul 16205 H70 5909HF 0:39:22 10'21 4587 4464 -123 4606
8 BLUM Virginie 12646 D60 5116GE 0:39:35 10'25 4384 4440 +56 4419
9 VAGNER Christine 3651 D65 5702GE 0:39:50 10'28 4488 4412 -76 4476
10 RUAUD Alain 740 H70 2508BF 0:40:13 10'35 4197 4370 +173 4277
11 PATURET Bertrand 2878 H70 6009HF 0:40:40 10'42 3789 4322 +533 4017
12 VUILLET Christian 2712 H70 2105BF 0:42:51 11'16 4561 4101 -460 4518
13 CREUSAT Fanny 25989 D45 8809GE 0:44:29 11'42 4174 3951 -223 4183
14 ROBERT Martine 1087 D65 7004BF 0:45:04 11'51 3314 3900 +586 3461
15 ABISSE Jacques 703 H75 2508BF 0:46:02 12'06 4109 3818 -291 4160
16 ANNE Brigitte 1672 D65 0111AR 0:46:49 12'19 4022 3754 -268 3998
17 MARCHAL Yves 27307 H70 2108BF 0:47:40 12'32 3774 3687 -87 3805
18 DEVILLE Nelly 2401 D70 5402GE 0:48:51 12'51 3963 3598 -365 3902
19 BLASS Nadine 18625 D60 5407GE 0:49:02 12'54 2480 3584 +1104 2787
20 DIEUDONNE Madeleine 1380 D70 7808IF 0:49:42 13'04 3612 3536 -76 3615
21 LOISY Sylvie 25576 D60 2104BF 0:51:12 13'28 3060 3433 +373 3279
22 RICHARD Nicole 14245 D70 0207HF 0:52:43 13'52 3788 3334 -454 3803
23 PIERSON J-Luc 3320 H70 6806GE 0:53:30 14'04 3087 3285 +198 3178
24 BOULANGER Isabelle 10639 D60 5907HF 0:54:01 14'12 3461 3254 -207 3520
25 OUDIN M-Reine 7574 D65 6804GE 0:54:05 14'13 2968 3250 +282 3043
26 KENANE Abdelkader 1448 H80 5501GE 0:54:45 14'24 3570 3210 -360 3363
27 LAZAROWICZ Richard 3600 H70 7512IF 0:54:55 14'27 3269 3200 -69 3183
28 VANNIER Bernard 2119 H70 7703IF 0:54:58 14'27 4684 3197 -1487 4774
29 LEMERCIER Bernard 1178 H70 5407GE 0:55:48 14'41 3355 3150 -205 3304
30 SENCE Marie-Pierre 29897 D40 5906HF 0:56:51 14'57 3282 3091 -191 3308
31 JEANPIERRE M-Therese 3302 D75 8809GE 0:57:07 15'01 2457 3077 +620 2596
32 CHALOPIN Catherine 3674 D65 2105BF 0:58:52 15'29 3710 2986 -724 3724
33 TORZ-DRUON Magali 10081 D65 5906HF 0:59:16 15'35 2732 2965 +233 2848
34 FISCHER Christiane 27627 D65 6803GE 0:59:55 15'46 2583 2933 +350 2901
35 BENACEK Vaclav 2368 H75 6806GE 1:02:35 16'28 3106 2808 -298 3168
36 BEGU Aurore 9042 D45 0111AR 1:03:16 16'38 3387 2778 -609 3378
37 BRUNEL Marie-Jo 8761 D65 8903BF 1:04:19 16'55 2695 2733 +38 2732
38 LAUVERGNE Sandrine 29245 D45 6806GE 1:05:44 17'17 3382 2674 -708 3418
39 LECOYER Annick 2885 D65 0207HF 1:06:04 17'23 3010 2660 -350 2979
40 PECHSTEIN Alice 9619 D40 5402GE 1:06:19 17'27 3430 2650 -780 3389
41 SIMONET Jean 930 H75 7707IF 1:06:25 17'28 4089 2646 -1443 3984
42 MOULIERE M-Bernadette 2888 D75 0207HF 1:07:39 17'48 2785 2598 -187 2833
43 JOLY Mauricette 310 D55 6803GE 1:07:44 17'49 2647 2595 -52 2673
44 PRUVOST Virginie 25881 D45 6208HF 1:08:12 17'56 3076 2577 -499 3085
45 AMIOT Jacques 2611 H80 2516BF 1:09:07 18'11 2402 2543 +141 2580
46 BAUD Sandrine 27612 D40 6203HF 1:09:52 18'23 2858 2515 -343 2789
47 GROSJEAN Pierre 12354 H80 6913AR 1:10:05 18'26 976 2508 +1532 1662
48 BASTIN Sandrine 34394 D45 4203AR 1:11:48 18'53 1687 2448 +761 2448
49 RUAUD Agnes 739 D65 2508BF 1:11:49 18'53 2398 2447 +49 2364
50 POGU Paulette 4671 D65 5402GE 1:12:19 19'01 2516 2430 -86 2528
51 GINTZBURGER Véronique 25055 D45 7407AR 1:13:53 19'26 3317 2379 -938 3268
52 MONTANARI Colette 2533 D70 5703GE 1:14:47 19'40 2867 2350 -517 2937
53 DEVIENNE Virginie 30570 D40 5906HF 1:22:05 21'36 2281 2141 -140 2204
54 DIEUDONNE Roland 1381 H70 7808IF 1:22:31 21'42 2369 2130 -239 2308
55 PINEAU Noelle 4678 D45 5702GE 1:25:43 22'33 2773 2050 -723 2694
56 AST Norbert 2512 H75 8809GE 1:28:21 23'15 2270 1989 -281 2856
57 DENIS Martine 12377 D70 9404IF 1:29:40 23'35 2462 1960 -502 2390
58 HODSON Michael 2404 H80 5402GE 1:37:00 25'31 1637 1812 +175 1937
59 GROSJEAN A-Marie 12059 D80 6913AR 1:42:31 26'58 1255 1714 +459 1580
60 BEN KHALED Isabelle 13761 D60 5909HF 1:44:25 27'28 1683 1630
61 BEGUINOT Jacques 1443 H80 5501GE 1:44:36 27'31 1370 1680 +310 1737
62 NEVEU Isabelle 13842 D60 8903BF 1:46:30 28'01 2281 1650 -631 2310
63 FISCHER M-Dominique 340 D55 6803GE 1:48:39 28'35 2253 1618 -635 2202
64 DODIN Genevieve 4392 D70 8809GE 1:52:54 29'42 1994 1557 -437 1954
65 LUDEWIG-JAMES Carol 15894 D80 5907HF 1:55:58 30'31 2009 1516 -493 1988
66 BEGUINOT M-Louise 1444 D75 5501GE 1:56:27 30'38 934 1509 +575 1333
67 FEHLEN Jacqueline 20808 D75 5407GE 2:20:22 36'56 1401 1252 -149 1331
ANNE Roger 1673 H70 0111AR pm None 4137 0 4152
ABISSE Gisele 701 D75 2508BF pm None 1841 0 2248
JOUCLA Patricia 35053 D40 8809GE pm None 0 1587
HABERKORN Didier 2716 H80 2105BF pm None 1717 0 1691